sensor_id;sensor_type;location;lat;lon;timestamp;temperature;humidity
37410;DHT22;23275;48.914;12.566;2024-02-23T00:01:28;7.80;99.90
37410;DHT22;23275;48.914;12.566;2024-02-23T00:03:54;7.80;99.90
37410;DHT22;23275;48.914;12.566;2024-02-23T00:06:21;7.80;99.90
37410;DHT22;23275;48.914;12.566;2024-02-23T00:08:48;7.80;99.90
37410;DHT22;23275;48.914;12.566;2024-02-23T00:11:13;7.90;99.90
37410;DHT22;23275;48.914;12.566;2024-02-23T00:13:39;7.90;99.90
37410;DHT22;23275;48.914;12.566;2024-02-23T00:16:05;7.90;99.90
37410;DHT22;23275;48.914;12.566;2024-02-23T00:18:30;7.90;99.90
37410;DHT22;23275;48.914;12.566;2024-02-23T00:20:56;7.80;99.90
37410;DHT22;23275;48.914;12.566;2024-02-23T00:23:22;7.80;99.90
37410;DHT22;23275;48.914;12.566;2024-02-23T00:25:47;7.70;99.90
37410;DHT22;23275;48.914;12.566;2024-02-23T00:28:13;7.70;99.90
37410;DHT22;23275;48.914;12.566;2024-02-23T00:30:39;7.70;99.90
37410;DHT22;23275;48.914;12.566;2024-02-23T00:33:04;7.80;99.90
37410;DHT22;23275;48.914;12.566;2024-02-23T00:35:30;7.80;99.90
37410;DHT22;23275;48.914;12.566;2024-02-23T00:37:56;7.80;99.90
37410;DHT22;23275;48.914;12.566;2024-02-23T00:40:21;7.80;99.90
37410;DHT22;23275;48.914;12.566;2024-02-23T00:42:48;7.80;99.90
37410;DHT22;23275;48.914;12.566;2024-02-23T00:45:14;7.80;99.90
37410;DHT22;23275;48.914;12.566;2024-02-23T00:47:40;7.80;99.90
37410;DHT22;23275;48.914;12.566;2024-02-23T00:50:06;7.90;99.90
37410;DHT22;23275;48.914;12.566;2024-02-23T00:52:31;7.90;99.90
37410;DHT22;23275;48.914;12.566;2024-02-23T00:54:57;7.90;99.90
37410;DHT22;23275;48.914;12.566;2024-02-23T00:57:23;8.00;99.90
37410;DHT22;23275;48.914;12.566;2024-02-23T00:59:57;8.10;99.90
37410;DHT22;23275;48.914;12.566;2024-02-23T01:02:23;8.10;99.90
37410;DHT22;23275;48.914;12.566;2024-02-23T01:04:48;8.10;99.90
37410;DHT22;23275;48.914;12.566;2024-02-23T01:07:14;8.10;99.90
37410;DHT22;23275;48.914;12.566;2024-02-23T01:09:40;8.10;99.90
37410;DHT22;23275;48.914;12.566;2024-02-23T01:12:05;8.10;99.90
37410;DHT22;23275;48.914;12.566;2024-02-23T01:14:31;8.20;99.90
37410;DHT22;23275;48.914;12.566;2024-02-23T01:16:57;8.30;99.90
37410;DHT22;23275;48.914;12.566;2024-02-23T01:19:22;8.30;99.90
37410;DHT22;23275;48.914;12.566;2024-02-23T01:21:49;8.30;99.90
37410;DHT22;23275;48.914;12.566;2024-02-23T01:24:18;8.30;99.90
37410;DHT22;23275;48.914;12.566;2024-02-23T01:26:43;8.40;99.90
37410;DHT22;23275;48.914;12.566;2024-02-23T01:29:09;8.40;99.90
37410;DHT22;23275;48.914;12.566;2024-02-23T01:31:35;8.40;99.90
37410;DHT22;23275;48.914;12.566;2024-02-23T01:34:00;8.40;99.90
37410;DHT22;23275;48.914;12.566;2024-02-23T01:36:26;8.40;99.90
37410;DHT22;23275;48.914;12.566;2024-02-23T01:38:51;8.40;99.90
37410;DHT22;23275;48.914;12.566;2024-02-23T01:41:17;8.40;99.90
37410;DHT22;23275;48.914;12.566;2024-02-23T01:43:42;8.40;99.90
37410;DHT22;23275;48.914;12.566;2024-02-23T01:46:08;8.40;99.90
37410;DHT22;23275;48.914;12.566;2024-02-23T01:48:34;8.40;99.90
37410;DHT22;23275;48.914;12.566;2024-02-23T01:51:00;8.40;99.90
37410;DHT22;23275;48.914;12.566;2024-02-23T01:53:26;8.40;99.90
37410;DHT22;23275;48.914;12.566;2024-02-23T01:55:53;8.40;99.90
37410;DHT22;23275;48.914;12.566;2024-02-23T01:58:19;8.40;99.90
37410;DHT22;23275;48.914;12.566;2024-02-23T02:00:45;8.50;99.90
37410;DHT22;23275;48.914;12.566;2024-02-23T02:03:10;8.50;99.90
37410;DHT22;23275;48.914;12.566;2024-02-23T02:05:37;8.50;99.90
37410;DHT22;23275;48.914;12.566;2024-02-23T02:08:03;8.50;99.90
37410;DHT22;23275;48.914;12.566;2024-02-23T02:10:29;8.50;99.90
37410;DHT22;23275;48.914;12.566;2024-02-23T02:12:55;8.50;99.90
37410;DHT22;23275;48.914;12.566;2024-02-23T02:15:20;8.50;99.90
37410;DHT22;23275;48.914;12.566;2024-02-23T02:17:48;8.40;99.90
37410;DHT22;23275;48.914;12.566;2024-02-23T02:20:13;8.40;99.90
37410;DHT22;23275;48.914;12.566;2024-02-23T02:22:39;8.40;99.90
37410;DHT22;23275;48.914;12.566;2024-02-23T02:25:06;8.30;99.90
37410;DHT22;23275;48.914;12.566;2024-02-23T02:27:32;8.00;99.90
37410;DHT22;23275;48.914;12.566;2024-02-23T02:29:58;7.70;99.90
37410;DHT22;23275;48.914;12.566;2024-02-23T02:32:23;7.40;99.90
37410;DHT22;23275;48.914;12.566;2024-02-23T02:34:49;7.20;99.90
37410;DHT22;23275;48.914;12.566;2024-02-23T02:37:15;7.00;99.90
37410;DHT22;23275;48.914;12.566;2024-02-23T02:39:40;6.80;99.90
37410;DHT22;23275;48.914;12.566;2024-02-23T02:42:06;6.70;99.90
37410;DHT22;23275;48.914;12.566;2024-02-23T02:44:32;6.70;99.90
37410;DHT22;23275;48.914;12.566;2024-02-23T02:46:58;6.60;99.90
37410;DHT22;23275;48.914;12.566;2024-02-23T02:49:23;6.60;99.90
37410;DHT22;23275;48.914;12.566;2024-02-23T02:51:49;6.50;99.90
37410;DHT22;23275;48.914;12.566;2024-02-23T02:54:15;6.50;99.90
37410;DHT22;23275;48.914;12.566;2024-02-23T02:56:46;6.50;99.90
37410;DHT22;23275;48.914;12.566;2024-02-23T02:59:13;6.60;99.90
37410;DHT22;23275;48.914;12.566;2024-02-23T03:01:39;6.60;99.90
37410;DHT22;23275;48.914;12.566;2024-02-23T03:04:05;6.60;99.90
37410;DHT22;23275;48.914;12.566;2024-02-23T03:06:30;6.60;99.90
37410;DHT22;23275;48.914;12.566;2024-02-23T03:08:56;6.50;99.90
37410;DHT22;23275;48.914;12.566;2024-02-23T03:11:22;6.50;99.90
37410;DHT22;23275;48.914;12.566;2024-02-23T03:13:47;6.50;99.90
37410;DHT22;23275;48.914;12.566;2024-02-23T03:16:17;6.40;99.90
37410;DHT22;23275;48.914;12.566;2024-02-23T03:18:43;6.40;99.90
37410;DHT22;23275;48.914;12.566;2024-02-23T03:21:09;6.40;99.90
37410;DHT22;23275;48.914;12.566;2024-02-23T03:23:35;6.40;99.90
37410;DHT22;23275;48.914;12.566;2024-02-23T03:26:01;6.30;99.90
37410;DHT22;23275;48.914;12.566;2024-02-23T03:28:26;6.30;99.90
37410;DHT22;23275;48.914;12.566;2024-02-23T03:30:52;6.30;99.90
37410;DHT22;23275;48.914;12.566;2024-02-23T03:33:18;6.20;99.90
37410;DHT22;23275;48.914;12.566;2024-02-23T03:35:43;6.20;99.90
37410;DHT22;23275;48.914;12.566;2024-02-23T03:38:09;6.20;99.90
37410;DHT22;23275;48.914;12.566;2024-02-23T03:40:34;6.20;99.90
37410;DHT22;23275;48.914;12.566;2024-02-23T03:43:01;6.20;99.90
37410;DHT22;23275;48.914;12.566;2024-02-23T03:45:27;6.20;99.90
37410;DHT22;23275;48.914;12.566;2024-02-23T03:47:53;6.20;99.90
37410;DHT22;23275;48.914;12.566;2024-02-23T03:50:19;6.20;99.90
37410;DHT22;23275;48.914;12.566;2024-02-23T03:52:44;6.20;99.90
37410;DHT22;23275;48.914;12.566;2024-02-23T03:55:10;6.10;99.90
37410;DHT22;23275;48.914;12.566;2024-02-23T03:57:36;6.10;99.90
37410;DHT22;23275;48.914;12.566;2024-02-23T04:00:02;6.10;99.90
37410;DHT22;23275;48.914;12.566;2024-02-23T04:02:28;6.10;99.90
37410;DHT22;23275;48.914;12.566;2024-02-23T04:04:54;6.10;99.90
37410;DHT22;23275;48.914;12.566;2024-02-23T04:07:20;6.10;99.90
37410;DHT22;23275;48.914;12.566;2024-02-23T04:09:46;6.10;99.90
37410;DHT22;23275;48.914;12.566;2024-02-23T04:12:23;6.20;99.90
37410;DHT22;23275;48.914;12.566;2024-02-23T04:14:49;6.20;99.90
37410;DHT22;23275;48.914;12.566;2024-02-23T04:17:15;6.20;99.90
37410;DHT22;23275;48.914;12.566;2024-02-23T04:19:41;6.10;99.90
37410;DHT22;23275;48.914;12.566;2024-02-23T04:22:08;6.10;99.90
37410;DHT22;23275;48.914;12.566;2024-02-23T04:24:36;6.10;99.90
37410;DHT22;23275;48.914;12.566;2024-02-23T04:27:04;6.20;99.90
37410;DHT22;23275;48.914;12.566;2024-02-23T04:29:30;6.20;99.90
37410;DHT22;23275;48.914;12.566;2024-02-23T04:31:55;6.20;99.90
37410;DHT22;23275;48.914;12.566;2024-02-23T04:34:21;6.20;99.90
37410;DHT22;23275;48.914;12.566;2024-02-23T04:36:46;6.20;99.90
37410;DHT22;23275;48.914;12.566;2024-02-23T04:39:12;6.10;99.90
37410;DHT22;23275;48.914;12.566;2024-02-23T04:41:37;6.10;99.90
37410;DHT22;23275;48.914;12.566;2024-02-23T04:44:03;6.00;99.90
37410;DHT22;23275;48.914;12.566;2024-02-23T04:46:30;6.00;99.90
37410;DHT22;23275;48.914;12.566;2024-02-23T04:48:55;6.00;99.90
37410;DHT22;23275;48.914;12.566;2024-02-23T04:51:21;6.00;99.90
37410;DHT22;23275;48.914;12.566;2024-02-23T04:53:49;6.00;99.90
37410;DHT22;23275;48.914;12.566;2024-02-23T04:56:14;6.00;99.90
37410;DHT22;23275;48.914;12.566;2024-02-23T04:58:40;6.00;99.90
37410;DHT22;23275;48.914;12.566;2024-02-23T05:01:07;5.90;99.90
37410;DHT22;23275;48.914;12.566;2024-02-23T05:03:33;5.90;99.90
37410;DHT22;23275;48.914;12.566;2024-02-23T05:05:58;5.90;99.90
37410;DHT22;23275;48.914;12.566;2024-02-23T05:08:24;5.80;99.90
37410;DHT22;23275;48.914;12.566;2024-02-23T05:10:50;5.80;99.90
37410;DHT22;23275;48.914;12.566;2024-02-23T05:13:16;5.80;99.90
37410;DHT22;23275;48.914;12.566;2024-02-23T05:15:42;5.80;99.90
37410;DHT22;23275;48.914;12.566;2024-02-23T05:18:07;5.80;99.90
37410;DHT22;23275;48.914;12.566;2024-02-23T05:20:33;5.80;99.90
37410;DHT22;23275;48.914;12.566;2024-02-23T05:22:58;5.80;99.90
37410;DHT22;23275;48.914;12.566;2024-02-23T05:25:24;5.80;99.90
37410;DHT22;23275;48.914;12.566;2024-02-23T05:27:51;5.80;99.90
37410;DHT22;23275;48.914;12.566;2024-02-23T05:30:16;5.90;99.90
37410;DHT22;23275;48.914;12.566;2024-02-23T05:32:42;5.80;99.90
37410;DHT22;23275;48.914;12.566;2024-02-23T05:35:08;5.80;99.90
37410;DHT22;23275;48.914;12.566;2024-02-23T05:37:37;5.80;99.90
37410;DHT22;23275;48.914;12.566;2024-02-23T05:40:04;5.70;99.90
37410;DHT22;23275;48.914;12.566;2024-02-23T05:42:38;5.70;99.90
37410;DHT22;23275;48.914;12.566;2024-02-23T05:45:06;5.70;99.90
37410;DHT22;23275;48.914;12.566;2024-02-23T05:47:35;5.70;99.90
37410;DHT22;23275;48.914;12.566;2024-02-23T05:50:02;5.60;99.90
37410;DHT22;23275;48.914;12.566;2024-02-23T05:52:28;5.60;99.90
37410;DHT22;23275;48.914;12.566;2024-02-23T05:54:54;5.60;99.90
37410;DHT22;23275;48.914;12.566;2024-02-23T05:57:21;5.70;99.90
37410;DHT22;23275;48.914;12.566;2024-02-23T05:59:47;5.70;99.90
37410;DHT22;23275;48.914;12.566;2024-02-23T06:02:13;5.70;99.90
37410;DHT22;23275;48.914;12.566;2024-02-23T06:04:40;5.50;99.90
37410;DHT22;23275;48.914;12.566;2024-02-23T06:07:06;5.40;99.90
37410;DHT22;23275;48.914;12.566;2024-02-23T06:09:31;5.30;99.90
37410;DHT22;23275;48.914;12.566;2024-02-23T06:11:57;5.20;99.90
37410;DHT22;23275;48.914;12.566;2024-02-23T06:14:22;5.10;99.90
37410;DHT22;23275;48.914;12.566;2024-02-23T06:16:49;5.10;99.90
37410;DHT22;23275;48.914;12.566;2024-02-23T06:19:15;5.10;99.90
37410;DHT22;23275;48.914;12.566;2024-02-23T06:21:40;5.10;99.90
37410;DHT22;23275;48.914;12.566;2024-02-23T06:24:07;5.10;99.90
37410;DHT22;23275;48.914;12.566;2024-02-23T06:26:34;5.20;99.90
37410;DHT22;23275;48.914;12.566;2024-02-23T06:29:00;5.30;99.90
37410;DHT22;23275;48.914;12.566;2024-02-23T06:31:25;5.30;99.90
37410;DHT22;23275;48.914;12.566;2024-02-23T06:33:51;5.40;99.90
37410;DHT22;23275;48.914;12.566;2024-02-23T06:36:17;5.40;99.90
37410;DHT22;23275;48.914;12.566;2024-02-23T06:38:44;5.50;99.90
37410;DHT22;23275;48.914;12.566;2024-02-23T06:41:11;5.60;99.90
37410;DHT22;23275;48.914;12.566;2024-02-23T06:43:37;5.70;99.90
37410;DHT22;23275;48.914;12.566;2024-02-23T06:46:07;5.90;99.90
37410;DHT22;23275;48.914;12.566;2024-02-23T06:48:33;6.00;99.90
37410;DHT22;23275;48.914;12.566;2024-02-23T06:51:00;6.10;99.90
37410;DHT22;23275;48.914;12.566;2024-02-23T06:53:25;6.20;99.90
37410;DHT22;23275;48.914;12.566;2024-02-23T06:55:51;6.30;99.90
37410;DHT22;23275;48.914;12.566;2024-02-23T06:58:16;6.40;99.90
37410;DHT22;23275;48.914;12.566;2024-02-23T07:00:43;6.40;99.90
37410;DHT22;23275;48.914;12.566;2024-02-23T07:03:09;6.40;99.90
37410;DHT22;23275;48.914;12.566;2024-02-23T07:05:35;6.40;99.90
37410;DHT22;23275;48.914;12.566;2024-02-23T07:08:01;6.30;99.90
37410;DHT22;23275;48.914;12.566;2024-02-23T07:10:27;6.30;99.90
37410;DHT22;23275;48.914;12.566;2024-02-23T07:12:52;6.40;99.90
37410;DHT22;23275;48.914;12.566;2024-02-23T07:15:23;6.40;99.90
37410;DHT22;23275;48.914;12.566;2024-02-23T07:17:49;6.40;99.90
37410;DHT22;23275;48.914;12.566;2024-02-23T07:20:15;6.40;99.90
37410;DHT22;23275;48.914;12.566;2024-02-23T07:22:44;6.40;99.90
37410;DHT22;23275;48.914;12.566;2024-02-23T07:25:11;6.30;99.90
37410;DHT22;23275;48.914;12.566;2024-02-23T07:27:36;6.40;99.90
37410;DHT22;23275;48.914;12.566;2024-02-23T07:30:02;6.40;99.90
37410;DHT22;23275;48.914;12.566;2024-02-23T07:32:30;6.30;99.90
37410;DHT22;23275;48.914;12.566;2024-02-23T07:34:56;6.40;99.90
37410;DHT22;23275;48.914;12.566;2024-02-23T07:37:22;6.40;99.90
37410;DHT22;23275;48.914;12.566;2024-02-23T07:39:48;6.40;99.90
37410;DHT22;23275;48.914;12.566;2024-02-23T07:42:13;6.40;99.90
37410;DHT22;23275;48.914;12.566;2024-02-23T07:44:44;6.30;99.90
37410;DHT22;23275;48.914;12.566;2024-02-23T07:47:10;6.30;99.90
37410;DHT22;23275;48.914;12.566;2024-02-23T07:49:36;6.30;99.90
37410;DHT22;23275;48.914;12.566;2024-02-23T07:52:02;6.30;99.90
37410;DHT22;23275;48.914;12.566;2024-02-23T07:54:29;6.40;99.90
37410;DHT22;23275;48.914;12.566;2024-02-23T07:56:54;6.40;99.90
37410;DHT22;23275;48.914;12.566;2024-02-23T07:59:20;6.50;99.90
37410;DHT22;23275;48.914;12.566;2024-02-23T08:01:45;6.50;99.90
37410;DHT22;23275;48.914;12.566;2024-02-23T08:04:12;6.60;99.90
37410;DHT22;23275;48.914;12.566;2024-02-23T08:06:39;6.70;99.90
37410;DHT22;23275;48.914;12.566;2024-02-23T08:09:04;6.70;99.90
37410;DHT22;23275;48.914;12.566;2024-02-23T08:11:30;6.60;99.90
37410;DHT22;23275;48.914;12.566;2024-02-23T08:13:56;6.60;99.90
37410;DHT22;23275;48.914;12.566;2024-02-23T08:16:21;6.60;99.90
37410;DHT22;23275;48.914;12.566;2024-02-23T08:18:47;6.60;99.90
37410;DHT22;23275;48.914;12.566;2024-02-23T08:21:13;6.60;99.90
37410;DHT22;23275;48.914;12.566;2024-02-23T08:23:38;6.70;99.90
37410;DHT22;23275;48.914;12.566;2024-02-23T08:26:04;6.60;99.90
37410;DHT22;23275;48.914;12.566;2024-02-23T08:28:29;6.60;99.90
37410;DHT22;23275;48.914;12.566;2024-02-23T08:30:55;6.60;99.90
37410;DHT22;23275;48.914;12.566;2024-02-23T08:33:21;6.60;99.90
37410;DHT22;23275;48.914;12.566;2024-02-23T08:35:46;6.60;99.90
37410;DHT22;23275;48.914;12.566;2024-02-23T08:38:14;6.70;99.90
37410;DHT22;23275;48.914;12.566;2024-02-23T08:40:39;6.70;99.90
37410;DHT22;23275;48.914;12.566;2024-02-23T08:43:05;6.70;99.90
37410;DHT22;23275;48.914;12.566;2024-02-23T08:45:30;6.70;99.90
37410;DHT22;23275;48.914;12.566;2024-02-23T08:47:56;6.90;99.90
37410;DHT22;23275;48.914;12.566;2024-02-23T08:50:22;7.10;99.90
37410;DHT22;23275;48.914;12.566;2024-02-23T08:52:47;7.30;99.90
37410;DHT22;23275;48.914;12.566;2024-02-23T08:55:13;7.30;99.90
37410;DHT22;23275;48.914;12.566;2024-02-23T08:57:38;7.40;99.90
37410;DHT22;23275;48.914;12.566;2024-02-23T09:00:05;7.50;99.90
37410;DHT22;23275;48.914;12.566;2024-02-23T09:02:31;7.70;99.90
37410;DHT22;23275;48.914;12.566;2024-02-23T09:04:58;8.00;99.90
37410;DHT22;23275;48.914;12.566;2024-02-23T09:07:23;8.10;99.90
37410;DHT22;23275;48.914;12.566;2024-02-23T09:09:49;8.20;99.90
37410;DHT22;23275;48.914;12.566;2024-02-23T09:12:15;8.30;99.90
37410;DHT22;23275;48.914;12.566;2024-02-23T09:14:45;8.40;99.90
37410;DHT22;23275;48.914;12.566;2024-02-23T09:17:11;8.90;99.90
37410;DHT22;23275;48.914;12.566;2024-02-23T09:19:38;9.20;99.90
37410;DHT22;23275;48.914;12.566;2024-02-23T09:22:04;9.10;99.90
37410;DHT22;23275;48.914;12.566;2024-02-23T09:24:29;9.20;99.90
37410;DHT22;23275;48.914;12.566;2024-02-23T09:26:55;9.30;99.90
37410;DHT22;23275;48.914;12.566;2024-02-23T09:29:20;9.20;99.90
37410;DHT22;23275;48.914;12.566;2024-02-23T09:31:47;9.10;99.90
37410;DHT22;23275;48.914;12.566;2024-02-23T09:34:13;8.90;99.90
37410;DHT22;23275;48.914;12.566;2024-02-23T09:36:39;8.70;99.90
37410;DHT22;23275;48.914;12.566;2024-02-23T09:39:04;8.60;99.90
37410;DHT22;23275;48.914;12.566;2024-02-23T09:41:30;8.40;99.90
37410;DHT22;23275;48.914;12.566;2024-02-23T09:44:00;8.00;99.90
37410;DHT22;23275;48.914;12.566;2024-02-23T09:46:26;7.90;99.90
37410;DHT22;23275;48.914;12.566;2024-02-23T09:48:52;8.00;99.90
37410;DHT22;23275;48.914;12.566;2024-02-23T09:51:19;7.90;99.90
37410;DHT22;23275;48.914;12.566;2024-02-23T09:53:47;7.90;99.90
37410;DHT22;23275;48.914;12.566;2024-02-23T09:56:15;8.00;99.90
37410;DHT22;23275;48.914;12.566;2024-02-23T09:58:43;7.90;99.90
37410;DHT22;23275;48.914;12.566;2024-02-23T10:01:10;7.90;99.90
37410;DHT22;23275;48.914;12.566;2024-02-23T10:03:37;7.90;99.90
37410;DHT22;23275;48.914;12.566;2024-02-23T10:06:04;7.90;99.90
37410;DHT22;23275;48.914;12.566;2024-02-23T10:08:30;7.70;99.90
37410;DHT22;23275;48.914;12.566;2024-02-23T10:10:56;7.50;99.90
37410;DHT22;23275;48.914;12.566;2024-02-23T10:13:23;7.50;99.90
37410;DHT22;23275;48.914;12.566;2024-02-23T10:15:51;7.40;99.90
37410;DHT22;23275;48.914;12.566;2024-02-23T10:18:18;7.40;99.90
37410;DHT22;23275;48.914;12.566;2024-02-23T10:20:48;7.50;99.90
37410;DHT22;23275;48.914;12.566;2024-02-23T10:23:15;7.50;99.90
37410;DHT22;23275;48.914;12.566;2024-02-23T10:25:41;7.50;99.90
37410;DHT22;23275;48.914;12.566;2024-02-23T10:28:07;7.50;99.90
37410;DHT22;23275;48.914;12.566;2024-02-23T10:30:33;7.50;99.90
37410;DHT22;23275;48.914;12.566;2024-02-23T10:32:59;7.50;99.90
37410;DHT22;23275;48.914;12.566;2024-02-23T10:35:25;7.50;99.90
37410;DHT22;23275;48.914;12.566;2024-02-23T10:37:53;7.60;99.90
37410;DHT22;23275;48.914;12.566;2024-02-23T10:40:20;7.60;99.90
37410;DHT22;23275;48.914;12.566;2024-02-23T10:42:48;7.70;99.90
37410;DHT22;23275;48.914;12.566;2024-02-23T10:45:20;7.80;99.90
37410;DHT22;23275;48.914;12.566;2024-02-23T10:47:50;7.70;99.90
37410;DHT22;23275;48.914;12.566;2024-02-23T10:50:17;7.70;99.90
37410;DHT22;23275;48.914;12.566;2024-02-23T10:52:45;7.70;99.90
37410;DHT22;23275;48.914;12.566;2024-02-23T10:55:13;7.80;99.90
37410;DHT22;23275;48.914;12.566;2024-02-23T10:57:39;7.90;99.90
37410;DHT22;23275;48.914;12.566;2024-02-23T11:00:06;7.90;99.90
37410;DHT22;23275;48.914;12.566;2024-02-23T11:02:38;8.00;99.90
37410;DHT22;23275;48.914;12.566;2024-02-23T11:05:05;8.00;99.90
37410;DHT22;23275;48.914;12.566;2024-02-23T11:07:33;8.00;99.90
37410;DHT22;23275;48.914;12.566;2024-02-23T11:09:59;8.00;99.90
37410;DHT22;23275;48.914;12.566;2024-02-23T11:12:28;7.90;99.90
37410;DHT22;23275;48.914;12.566;2024-02-23T11:15:00;7.90;99.90
37410;DHT22;23275;48.914;12.566;2024-02-23T11:17:27;8.00;99.90
37410;DHT22;23275;48.914;12.566;2024-02-23T11:19:55;8.10;99.90
37410;DHT22;23275;48.914;12.566;2024-02-23T11:22:27;8.00;99.90
37410;DHT22;23275;48.914;12.566;2024-02-23T11:25:06;8.00;99.90
37410;DHT22;23275;48.914;12.566;2024-02-23T11:27:36;7.90;99.90
37410;DHT22;23275;48.914;12.566;2024-02-23T11:30:07;7.90;99.90
37410;DHT22;23275;48.914;12.566;2024-02-23T11:32:41;8.00;99.90
37410;DHT22;23275;48.914;12.566;2024-02-23T11:35:07;8.00;99.90
37410;DHT22;23275;48.914;12.566;2024-02-23T11:37:45;8.00;99.90
37410;DHT22;23275;48.914;12.566;2024-02-23T11:40:12;7.90;99.90
37410;DHT22;23275;48.914;12.566;2024-02-23T11:42:40;7.90;99.90
37410;DHT22;23275;48.914;12.566;2024-02-23T11:45:07;8.00;99.90
37410;DHT22;23275;48.914;12.566;2024-02-23T11:47:33;8.00;99.90
37410;DHT22;23275;48.914;12.566;2024-02-23T11:49:58;8.00;99.90
37410;DHT22;23275;48.914;12.566;2024-02-23T11:52:24;8.10;99.90
37410;DHT22;23275;48.914;12.566;2024-02-23T11:54:49;8.00;99.90
37410;DHT22;23275;48.914;12.566;2024-02-23T11:57:15;7.80;99.90
37410;DHT22;23275;48.914;12.566;2024-02-23T11:59:41;7.80;99.90
37410;DHT22;23275;48.914;12.566;2024-02-23T12:02:07;7.80;99.90
37410;DHT22;23275;48.914;12.566;2024-02-23T12:04:33;7.80;99.90
37410;DHT22;23275;48.914;12.566;2024-02-23T12:06:59;7.80;99.90
37410;DHT22;23275;48.914;12.566;2024-02-23T12:09:26;7.90;99.90
37410;DHT22;23275;48.914;12.566;2024-02-23T12:11:51;8.00;99.90
37410;DHT22;23275;48.914;12.566;2024-02-23T12:14:17;8.10;99.90
37410;DHT22;23275;48.914;12.566;2024-02-23T12:16:43;7.80;99.90
37410;DHT22;23275;48.914;12.566;2024-02-23T12:19:08;7.50;99.90
37410;DHT22;23275;48.914;12.566;2024-02-23T12:21:34;7.50;99.90
37410;DHT22;23275;48.914;12.566;2024-02-23T12:24:06;7.40;99.90
37410;DHT22;23275;48.914;12.566;2024-02-23T12:26:33;7.20;99.90
37410;DHT22;23275;48.914;12.566;2024-02-23T12:29:02;7.20;99.90
37410;DHT22;23275;48.914;12.566;2024-02-23T12:31:28;7.40;99.90
37410;DHT22;23275;48.914;12.566;2024-02-23T12:33:54;7.30;99.90
37410;DHT22;23275;48.914;12.566;2024-02-23T12:36:22;7.20;99.90
37410;DHT22;23275;48.914;12.566;2024-02-23T12:38:48;7.20;99.90
37410;DHT22;23275;48.914;12.566;2024-02-23T12:41:14;7.20;99.90
37410;DHT22;23275;48.914;12.566;2024-02-23T12:43:40;7.20;99.90
37410;DHT22;23275;48.914;12.566;2024-02-23T12:46:05;7.30;99.90
37410;DHT22;23275;48.914;12.566;2024-02-23T12:48:33;7.20;99.90
37410;DHT22;23275;48.914;12.566;2024-02-23T12:50:59;7.00;99.90
37410;DHT22;23275;48.914;12.566;2024-02-23T12:53:41;6.90;99.90
37410;DHT22;23275;48.914;12.566;2024-02-23T12:56:12;6.70;99.90
37410;DHT22;23275;48.914;12.566;2024-02-23T12:58:40;6.60;99.90
37410;DHT22;23275;48.914;12.566;2024-02-23T13:01:06;6.50;99.90
37410;DHT22;23275;48.914;12.566;2024-02-23T13:03:33;6.50;99.90
37410;DHT22;23275;48.914;12.566;2024-02-23T13:05:58;6.40;99.90
37410;DHT22;23275;48.914;12.566;2024-02-23T13:08:25;6.50;99.90
37410;DHT22;23275;48.914;12.566;2024-02-23T13:10:51;6.60;99.90
37410;DHT22;23275;48.914;12.566;2024-02-23T13:13:18;6.70;99.90
37410;DHT22;23275;48.914;12.566;2024-02-23T13:15:45;6.70;99.90
37410;DHT22;23275;48.914;12.566;2024-02-23T13:18:10;6.60;99.90
37410;DHT22;23275;48.914;12.566;2024-02-23T13:20:37;6.50;99.90
37410;DHT22;23275;48.914;12.566;2024-02-23T13:23:03;6.50;99.90
37410;DHT22;23275;48.914;12.566;2024-02-23T13:25:28;6.50;99.90
37410;DHT22;23275;48.914;12.566;2024-02-23T13:27:54;6.50;99.90
37410;DHT22;23275;48.914;12.566;2024-02-23T13:30:19;6.40;99.90
37410;DHT22;23275;48.914;12.566;2024-02-23T13:32:45;6.40;99.90
37410;DHT22;23275;48.914;12.566;2024-02-23T13:35:11;6.50;99.90
37410;DHT22;23275;48.914;12.566;2024-02-23T13:37:37;6.50;99.90
37410;DHT22;23275;48.914;12.566;2024-02-23T13:40:02;6.50;99.90
37410;DHT22;23275;48.914;12.566;2024-02-23T13:42:31;6.50;99.90
37410;DHT22;23275;48.914;12.566;2024-02-23T13:44:56;6.60;99.90
37410;DHT22;23275;48.914;12.566;2024-02-23T13:47:22;6.60;99.90
37410;DHT22;23275;48.914;12.566;2024-02-23T13:49:47;6.70;99.90
37410;DHT22;23275;48.914;12.566;2024-02-23T13:52:13;6.80;99.90
37410;DHT22;23275;48.914;12.566;2024-02-23T13:54:39;6.80;99.90
37410;DHT22;23275;48.914;12.566;2024-02-23T13:57:04;6.70;99.90
37410;DHT22;23275;48.914;12.566;2024-02-23T13:59:30;6.70;99.90
37410;DHT22;23275;48.914;12.566;2024-02-23T14:01:55;6.70;99.90
37410;DHT22;23275;48.914;12.566;2024-02-23T14:04:21;6.70;99.90
37410;DHT22;23275;48.914;12.566;2024-02-23T14:06:47;6.60;99.90
37410;DHT22;23275;48.914;12.566;2024-02-23T14:09:13;6.60;99.90
37410;DHT22;23275;48.914;12.566;2024-02-23T14:11:39;6.70;99.90
37410;DHT22;23275;48.914;12.566;2024-02-23T14:14:05;6.70;99.90
37410;DHT22;23275;48.914;12.566;2024-02-23T14:16:31;6.70;99.90
37410;DHT22;23275;48.914;12.566;2024-02-23T14:18:56;6.60;99.90
37410;DHT22;23275;48.914;12.566;2024-02-23T14:21:22;6.50;99.90
37410;DHT22;23275;48.914;12.566;2024-02-23T14:23:50;6.50;99.90
37410;DHT22;23275;48.914;12.566;2024-02-23T14:26:16;6.40;99.90
37410;DHT22;23275;48.914;12.566;2024-02-23T14:28:42;6.40;99.90
37410;DHT22;23275;48.914;12.566;2024-02-23T14:31:07;6.40;99.90
37410;DHT22;23275;48.914;12.566;2024-02-23T14:33:33;6.40;99.90
37410;DHT22;23275;48.914;12.566;2024-02-23T14:35:59;6.40;99.90
37410;DHT22;23275;48.914;12.566;2024-02-23T14:38:25;6.40;99.90
37410;DHT22;23275;48.914;12.566;2024-02-23T14:40:51;6.50;99.90
37410;DHT22;23275;48.914;12.566;2024-02-23T14:43:17;6.50;99.90
37410;DHT22;23275;48.914;12.566;2024-02-23T14:45:43;6.60;99.90
37410;DHT22;23275;48.914;12.566;2024-02-23T14:48:09;6.50;99.90
37410;DHT22;23275;48.914;12.566;2024-02-23T14:50:34;6.50;99.90
37410;DHT22;23275;48.914;12.566;2024-02-23T14:53:00;6.50;99.90
37410;DHT22;23275;48.914;12.566;2024-02-23T14:55:25;6.50;99.90
37410;DHT22;23275;48.914;12.566;2024-02-23T14:57:51;6.50;99.90
37410;DHT22;23275;48.914;12.566;2024-02-23T15:00:17;6.40;99.90
37410;DHT22;23275;48.914;12.566;2024-02-23T15:02:43;6.30;99.90
37410;DHT22;23275;48.914;12.566;2024-02-23T15:05:09;6.30;99.90
37410;DHT22;23275;48.914;12.566;2024-02-23T15:07:35;6.20;99.90
37410;DHT22;23275;48.914;12.566;2024-02-23T15:10:01;6.20;99.90
37410;DHT22;23275;48.914;12.566;2024-02-23T15:12:36;6.10;99.90
37410;DHT22;23275;48.914;12.566;2024-02-23T15:15:02;6.10;99.90
37410;DHT22;23275;48.914;12.566;2024-02-23T15:17:29;6.00;99.90
37410;DHT22;23275;48.914;12.566;2024-02-23T15:19:55;6.00;99.90
37410;DHT22;23275;48.914;12.566;2024-02-23T15:22:20;6.00;99.90
37410;DHT22;23275;48.914;12.566;2024-02-23T15:24:46;6.00;99.90